Time;durP1;ratioP1;P1;durP2;ratioP2;P2;SDS_P1;SDS_P2;PMS_P1;PMS_P2;Temp;Humidity;BMP_temperature;BMP_pressure;BME280_temperature;BME280_humidity;BME280_pressure;Samples;Min_cycle;Max_cycle;Signal;HPM_P1;HPM_P2
2023/05/28 00:01:37;;;;;;;14.85;7.35;;;11.60;99.90;;;;;;7596153;19;20095;-75
2023/05/28 00:04:28;;;;;;;12.50;7.50;;;11.60;99.90;;;;;;7594735;19;20022;-75
2023/05/28 00:07:21;;;;;;;16.90;7.57;;;11.50;99.90;;;;;;7589477;19;21089;-74
2023/05/28 00:10:12;;;;;;;16.60;7.80;;;11.40;99.90;;;;;;7595167;19;20680;-77
2023/05/28 00:12:44;;;;;;;13.60;7.13;;;11.30;99.90;;;;;;7593795;19;20029;-74
2023/05/28 00:15:16;;;;;;;20.23;8.88;;;11.30;99.90;;;;;;7592229;19;20662;-74
2023/05/28 00:17:52;;;;;;;21.90;8.37;;;11.30;99.90;;;;;;7593311;19;20030;-76
2023/05/28 00:20:25;;;;;;;14.18;7.85;;;11.30;99.90;;;;;;7594166;19;20271;-73
2023/05/28 00:22:57;;;;;;;24.27;8.83;;;11.20;99.90;;;;;;7590375;19;20014;-73
2023/05/28 00:25:29;;;;;;;14.38;7.43;;;11.10;99.90;;;;;;7595118;19;20025;-74
2023/05/28 00:28:01;;;;;;;14.55;7.60;;;11.10;99.90;;;;;;7596358;19;20021;-75
2023/05/28 00:30:34;;;;;;;16.25;7.93;;;11.10;99.90;;;;;;7591912;19;22385;-74
2023/05/28 00:33:06;;;;;;;14.02;8.05;;;11.10;99.90;;;;;;7587211;19;20023;-75
2023/05/28 00:35:38;;;;;;;16.70;8.50;;;11.00;99.90;;;;;;7594778;19;20534;-74
2023/05/28 00:38:11;;;;;;;16.55;8.30;;;11.00;99.90;;;;;;7587573;19;20018;-75
2023/05/28 00:40:44;;;;;;;15.82;7.55;;;11.00;99.90;;;;;;7596986;19;20037;-75
2023/05/28 00:43:19;;;;;;;16.25;8.18;;;11.00;99.90;;;;;;7588243;19;20024;-74
2023/05/28 00:45:51;;;;;;;17.67;7.43;;;11.00;99.90;;;;;;7608349;19;20373;-74
2023/05/28 00:48:24;;;;;;;15.80;7.47;;;11.00;99.90;;;;;;7597367;19;20026;-74
2023/05/28 00:50:58;;;;;;;15.82;7.97;;;11.00;99.90;;;;;;7588559;19;20017;-73
2023/05/28 00:53:31;;;;;;;12.93;7.20;;;11.00;99.90;;;;;;7583262;19;20018;-74
2023/05/28 00:56:03;;;;;;;13.43;7.75;;;10.90;99.90;;;;;;7593775;19;20026;-75
2023/05/28 00:58:40;;;;;;;17.50;7.53;;;10.90;99.90;;;;;;7591208;19;20061;-75
2023/05/28 01:01:12;;;;;;;14.40;7.82;;;10.90;99.90;;;;;;7593687;19;20041;-75
2023/05/28 01:03:44;;;;;;;16.23;7.97;;;10.90;99.90;;;;;;7592098;19;20131;-74
2023/05/28 01:06:17;;;;;;;23.13;8.38;;;10.70;99.90;;;;;;7589876;19;21015;-74
2023/05/28 01:08:50;;;;;;;15.77;8.13;;;10.60;99.90;;;;;;7585145;19;20011;-75
2023/05/28 01:11:24;;;;;;;16.90;7.60;;;10.40;99.90;;;;;;7586960;19;20093;-74
2023/05/28 01:13:57;;;;;;;16.20;8.98;;;10.40;99.90;;;;;;7590511;19;20022;-74
2023/05/28 01:16:29;;;;;;;16.98;7.65;;;10.50;99.90;;;;;;7589225;19;20040;-75
2023/05/28 01:19:08;;;;;;;15.05;7.68;;;10.50;99.90;;;;;;7591172;19;20672;-75
2023/05/28 01:21:43;;;;;;;14.60;7.82;;;10.60;99.90;;;;;;7589304;19;20022;-73
2023/05/28 01:24:17;;;;;;;15.43;7.57;;;10.60;99.90;;;;;;7589904;19;20836;-74
2023/05/28 01:26:50;;;;;;;14.43;7.65;;;10.50;99.90;;;;;;7592549;19;21683;-75
2023/05/28 01:29:23;;;;;;;18.80;8.63;;;10.50;99.90;;;;;;7588579;19;20021;-73
2023/05/28 01:31:55;;;;;;;15.30;8.45;;;10.50;99.90;;;;;;7590593;19;20131;-74
2023/05/28 01:34:27;;;;;;;16.17;7.93;;;10.60;99.90;;;;;;7592136;19;21056;-74
2023/05/28 01:37:03;;;;;;;;;;;10.50;99.90;;;;;;7590169;19;20019;-73
2023/05/28 01:39:42;;;;;;;15.63;8.30;;;10.40;99.90;;;;;;7589623;19;19918;-74
2023/05/28 01:42:15;;;;;;;12.90;8.02;;;10.40;99.90;;;;;;7589389;19;20529;-76
2023/05/28 01:44:50;;;;;;;21.38;8.95;;;10.40;99.90;;;;;;7594439;19;21091;-73
2023/05/28 01:47:23;;;;;;;14.10;8.45;;;10.30;99.90;;;;;;7590094;19;20025;-75
2023/05/28 01:49:56;;;;;;;15.43;8.65;;;10.20;99.90;;;;;;7594367;19;20021;-76
2023/05/28 01:52:28;;;;;;;17.42;9.02;;;10.20;99.90;;;;;;7585102;19;20022;-75
2023/05/28 01:55:00;;;;;;;15.18;9.13;;;10.20;99.90;;;;;;7595433;19;20780;-75
2023/05/28 01:57:33;;;;;;;15.30;7.63;;;10.20;99.90;;;;;;7591121;19;20015;-76
2023/05/28 02:00:06;;;;;;;15.00;8.47;;;10.20;99.90;;;;;;7591301;19;20025;-75
2023/05/28 02:02:46;;;;;;;18.27;9.25;;;10.10;99.90;;;;;;7591834;19;20602;-74
2023/05/28 02:05:21;;;;;;;18.85;8.43;;;10.10;99.90;;;;;;7590346;19;20023;-74
2023/05/28 02:07:54;;;;;;;17.17;8.93;;;10.00;99.90;;;;;;7587182;19;20017;-74
2023/05/28 02:10:26;;;;;;;17.60;8.80;;;10.00;99.90;;;;;;7591427;19;21258;-74
2023/05/28 02:13:00;;;;;;;15.10;8.07;;;9.90;99.90;;;;;;7591015;19;20020;-75
2023/05/28 02:15:33;;;;;;;18.25;9.20;;;9.90;99.90;;;;;;7588861;19;20015;-76
2023/05/28 02:18:05;;;;;;;15.05;8.55;;;9.90;99.90;;;;;;7592535;19;20022;-76
2023/05/28 02:20:38;;;;;;;15.70;8.38;;;9.90;99.90;;;;;;7586648;19;20021;-74
2023/05/28 02:23:10;;;;;;;17.95;8.02;;;9.80;99.90;;;;;;7592143;19;20010;-74
2023/05/28 02:25:43;;;;;;;15.85;8.00;;;9.80;99.90;;;;;;7592150;19;20022;-74
2023/05/28 02:28:16;;;;;;;15.23;8.20;;;9.80;99.90;;;;;;7592147;19;20380;-75
2023/05/28 02:30:48;;;;;;;14.55;8.73;;;9.80;99.90;;;;;;7591337;19;20826;-74
2023/05/28 02:33:21;;;;;;;13.85;8.35;;;9.80;99.90;;;;;;7571837;19;20018;-74
2023/05/28 02:35:54;;;;;;;16.20;8.10;;;9.70;99.90;;;;;;7589528;19;20065;-75
2023/05/28 02:38:27;;;;;;;17.38;8.93;;;9.70;99.90;;;;;;7585333;19;21008;-74
2023/05/28 02:40:59;;;;;;;14.02;8.45;;;9.80;99.90;;;;;;7589887;19;20010;-74
2023/05/28 02:43:31;;;;;;;20.30;9.40;;;9.70;99.90;;;;;;7587338;19;20368;-74
2023/05/28 02:46:04;;;;;;;16.85;9.40;;;9.60;99.90;;;;;;7590894;19;20094;-75
2023/05/28 02:48:38;;;;;;;17.50;9.75;;;9.60;99.90;;;;;;7589836;19;20482;-74
2023/05/28 02:51:11;;;;;;;21.50;8.57;;;9.60;99.90;;;;;;7584560;19;20018;-73
2023/05/28 02:53:53;;;;;;;16.10;8.77;;;9.50;99.90;;;;;;7586656;19;20015;-74
2023/05/28 02:56:27;;;;;;;18.85;8.23;;;9.50;99.90;;;;;;7584194;19;20394;-75
2023/05/28 02:59:01;;;;;;;20.55;9.02;;;9.50;99.90;;;;;;7588111;19;20022;-74
2023/05/28 03:01:33;;;;;;;16.23;8.77;;;9.50;99.90;;;;;;7584380;19;20023;-74
2023/05/28 03:04:05;;;;;;;16.15;9.02;;;9.50;99.90;;;;;;7587176;19;20873;-76
2023/05/28 03:06:38;;;;;;;20.80;8.85;;;9.50;99.90;;;;;;7586335;19;20056;-77
2023/05/28 03:09:11;;;;;;;18.35;8.45;;;9.30;99.90;;;;;;7585292;19;20140;-76
2023/05/28 03:11:44;;;;;;;;;;;9.30;99.90;;;;;;7585157;19;20030;-75
2023/05/28 03:14:16;;;;;;;16.10;8.60;;;9.30;99.90;;;;;;7586650;19;20419;-74
2023/05/28 03:16:49;;;;;;;16.83;8.52;;;9.30;99.90;;;;;;7581788;19;20515;-74
2023/05/28 03:19:26;;;;;;;17.85;9.70;;;9.30;99.90;;;;;;7585048;19;20018;-76
2023/05/28 03:21:59;;;;;;;19.15;8.68;;;9.20;99.90;;;;;;7594025;19;20017;-75
2023/05/28 03:24:38;;;;;;;13.80;8.13;;;9.20;99.90;;;;;;7600645;19;20685;-75
2023/05/28 03:27:14;;;;;;;13.07;7.55;;;9.10;99.90;;;;;;7599691;19;20021;-74
2023/05/28 03:29:48;;;;;;;12.68;7.20;;;9.20;99.90;;;;;;7596288;19;20115;-74
2023/05/28 03:32:27;;;;;;;12.38;7.80;;;9.20;99.90;;;;;;7583831;19;20018;-74
2023/05/28 03:35:00;;;;;;;17.27;8.48;;;9.20;99.90;;;;;;7595599;19;20022;-74
2023/05/28 03:37:35;;;;;;;12.52;7.97;;;9.20;99.90;;;;;;7595054;19;20022;-74
2023/05/28 03:40:08;;;;;;;13.77;8.18;;;9.20;99.90;;;;;;7596775;19;20476;-74
2023/05/28 03:42:41;;;;;;;12.90;8.30;;;9.20;99.90;;;;;;7592639;19;20019;-75
2023/05/28 03:45:13;;;;;;;12.15;8.07;;;9.20;99.90;;;;;;7595231;19;20081;-76
2023/05/28 03:47:46;;;;;;;17.43;8.43;;;9.30;99.90;;;;;;7592634;19;20438;-74
2023/05/28 03:50:18;;;;;;;12.55;8.20;;;9.20;99.90;;;;;;7592484;19;20018;-73
2023/05/28 03:52:51;;;;;;;11.95;7.60;;;9.20;99.90;;;;;;7590405;19;20010;-76
2023/05/28 03:55:24;;;;;;;14.48;8.32;;;9.30;99.90;;;;;;7592012;19;20090;-74
2023/05/28 03:57:56;;;;;;;20.05;8.80;;;9.30;99.90;;;;;;7596193;19;20018;-76
2023/05/28 04:00:29;;;;;;;16.25;8.32;;;9.30;99.90;;;;;;7590619;19;20021;-74
2023/05/28 04:03:03;;;;;;;14.38;8.52;;;9.30;99.90;;;;;;7596014;19;20017;-75
2023/05/28 04:05:36;;;;;;;17.40;7.60;;;9.30;99.90;;;;;;7601491;19;20007;-75
2023/05/28 04:08:08;;;;;;;14.07;7.88;;;9.40;99.90;;;;;;7619492;19;20030;-74
2023/05/28 04:10:41;;;;;;;17.17;8.23;;;9.50;99.90;;;;;;7616150;19;20010;-74
2023/05/28 04:13:13;;;;;;;14.82;7.78;;;9.50;99.90;;;;;;7619715;19;20017;-75
2023/05/28 04:15:46;;;;;;;14.85;7.30;;;9.50;99.90;;;;;;7622627;19;20182;-74
2023/05/28 04:18:18;;;;;;;14.90;7.68;;;9.50;99.90;;;;;;7618581;19;20027;-74
2023/05/28 04:20:51;;;;;;;12.53;7.53;;;9.50;99.90;;;;;;7604886;19;20018;-74
2023/05/28 04:23:24;;;;;;;13.25;7.78;;;9.60;99.90;;;;;;7586403;19;21388;-77
2023/05/28 04:25:57;;;;;;;13.82;7.40;;;9.60;99.90;;;;;;7593583;19;20060;-75
2023/05/28 04:28:29;;;;;;;14.82;7.90;;;9.70;99.90;;;;;;7586013;19;20029;-74
2023/05/28 04:31:01;;;;;;;15.20;7.75;;;9.70;99.90;;;;;;7586318;19;20180;-75
2023/05/28 04:33:36;;;;;;;16.30;7.82;;;9.70;99.90;;;;;;7583490;19;20014;-75
2023/05/28 04:36:09;;;;;;;14.27;7.60;;;9.70;99.90;;;;;;7590728;19;20015;-73
2023/05/28 04:38:42;;;;;;;14.10;8.43;;;9.80;99.90;;;;;;7584380;19;20022;-73
2023/05/28 04:41:14;;;;;;;21.85;7.88;;;9.80;99.90;;;;;;7586502;19;20315;-75
2023/05/28 04:43:48;;;;;;;12.20;7.32;;;10.00;99.90;;;;;;7582666;19;20029;-75
2023/05/28 04:46:25;;;;;;;13.75;7.82;;;10.00;99.90;;;;;;7584726;19;20025;-73
2023/05/28 04:48:57;;;;;;;17.27;7.60;;;10.10;99.90;;;;;;7586742;19;20022;-73
2023/05/28 04:51:32;;;;;;;;;;;10.10;99.90;;;;;;7589755;19;20015;-75
2023/05/28 04:54:05;;;;;;;13.30;7.93;;;10.10;99.90;;;;;;7592897;19;19953;-74
2023/05/28 04:56:38;;;;;;;12.10;7.38;;;10.20;99.90;;;;;;7589843;19;20018;-75
2023/05/28 04:59:11;;;;;;;16.03;8.33;;;10.20;99.90;;;;;;7591511;19;20082;-74
2023/05/28 05:01:43;;;;;;;13.63;7.63;;;10.40;99.90;;;;;;7585892;19;20760;-75
2023/05/28 05:04:17;;;;;;;12.70;7.63;;;10.50;99.90;;;;;;7589296;19;20025;-75
2023/05/28 05:06:50;;;;;;;14.45;7.95;;;10.60;99.90;;;;;;7587450;19;20658;-77
2023/05/28 05:09:23;;;;;;;18.92;8.13;;;10.70;99.90;;;;;;7588640;19;20503;-73
2023/05/28 05:11:55;;;;;;;15.30;7.93;;;10.90;99.90;;;;;;7587287;19;20021;-75
2023/05/28 05:14:27;;;;;;;18.00;7.60;;;11.00;99.90;;;;;;7585795;19;20018;-74
2023/05/28 05:16:59;;;;;;;19.90;8.48;;;11.10;99.90;;;;;;7584914;19;20022;-75
2023/05/28 05:19:33;;;;;;;14.60;8.40;;;11.20;99.90;;;;;;7581701;19;20065;-76
2023/05/28 05:22:06;;;;;;;20.63;8.35;;;11.40;99.90;;;;;;7583751;19;20056;-74
2023/05/28 05:24:39;;;;;;;17.63;8.38;;;11.50;99.90;;;;;;7586045;19;20068;-75
2023/05/28 05:27:11;;;;;;;21.55;8.40;;;11.70;99.90;;;;;;7583000;19;20603;-74
2023/05/28 05:29:44;;;;;;;21.52;8.15;;;11.80;99.90;;;;;;7584660;19;20021;-74
2023/05/28 05:32:16;;;;;;;21.27;7.88;;;11.90;99.90;;;;;;7587697;19;20015;-75
2023/05/28 05:34:49;;;;;;;15.80;7.68;;;12.00;99.90;;;;;;7585858;19;20052;-75
2023/05/28 05:37:30;;;;;;;20.38;8.35;;;12.20;99.90;;;;;;7586181;19;20018;-74
2023/05/28 05:40:12;;;;;;;18.70;7.97;;;12.20;99.90;;;;;;7588623;19;20981;-75
2023/05/28 05:43:10;;;;;;;17.75;8.40;;;12.40;99.90;;;;;;7579007;19;21706;-75
2023/05/28 05:45:43;;;;;;;22.37;8.03;;;12.50;99.90;;;;;;7580836;19;20112;-75
2023/05/28 05:48:17;;;;;;;17.45;7.68;;;12.60;99.90;;;;;;7586793;19;20015;-75
2023/05/28 05:50:55;;;;;;;20.70;8.18;;;12.70;99.90;;;;;;7587201;19;20018;-76
2023/05/28 05:53:28;;;;;;;19.08;8.35;;;12.80;99.90;;;;;;7579791;19;20997;-75
2023/05/28 05:56:01;;;;;;;16.05;8.00;;;13.00;99.90;;;;;;7583476;19;20011;-75
2023/05/28 05:58:35;;;;;;;18.17;7.87;;;13.20;99.90;;;;;;7583462;19;20010;-75
2023/05/28 06:01:08;;;;;;;17.00;8.23;;;13.20;99.90;;;;;;7581959;19;21013;-75
2023/05/28 06:03:42;;;;;;;19.35;7.47;;;13.30;99.90;;;;;;7598215;19;20042;-74
2023/05/28 06:06:40;;;;;;;15.57;7.03;;;13.40;99.90;;;;;;7605506;19;20018;-76
2023/05/28 06:09:19;;;;;;;12.00;6.45;;;13.50;99.90;;;;;;7593334;19;21158;-76
2023/05/28 06:11:59;;;;;;;15.25;7.63;;;13.70;99.90;;;;;;7594837;19;20010;-75
2023/05/28 06:14:32;;;;;;;17.27;7.03;;;13.80;99.90;;;;;;7584898;19;20107;-76
2023/05/28 06:17:05;;;;;;;16.27;6.68;;;13.90;99.90;;;;;;7590375;19;20020;-75
2023/05/28 06:19:38;;;;;;;21.63;6.72;;;14.00;99.90;;;;;;7586871;19;20088;-76
2023/05/28 06:22:11;;;;;;;21.63;7.70;;;14.10;99.90;;;;;;7588642;19;20079;-75
2023/05/28 06:24:49;;;;;;;16.98;6.75;;;14.10;99.90;;;;;;7588578;19;20061;-73
2023/05/28 06:27:22;;;;;;;18.77;7.28;;;14.20;99.90;;;;;;7582505;19;20018;-75
2023/05/28 06:29:54;;;;;;;14.25;7.05;;;14.30;99.90;;;;;;7577297;19;20021;-76
2023/05/28 06:32:27;;;;;;;19.02;7.05;;;14.40;99.90;;;;;;7588632;19;20695;-74
2023/05/28 06:35:00;;;;;;;18.35;7.65;;;14.50;99.90;;;;;;7590240;19;20041;-75
2023/05/28 06:37:33;;;;;;;17.02;7.05;;;14.70;99.90;;;;;;7583983;19;20026;-74
2023/05/28 06:40:06;;;;;;;20.92;7.25;;;14.80;99.90;;;;;;7588794;19;20952;-74
2023/05/28 06:42:39;;;;;;;19.70;7.28;;;15.00;99.90;;;;;;7581714;19;20489;-75
2023/05/28 06:45:43;;;;;;;;;;;15.00;99.90;;;;;;7586323;19;20014;-75
2023/05/28 06:48:17;;;;;;;20.08;7.18;;;15.10;99.90;;;;;;7583946;19;20483;-75
2023/05/28 06:50:49;;;;;;;15.40;6.25;;;15.20;99.90;;;;;;7589487;19;20574;-75
2023/05/28 06:53:22;;;;;;;13.43;7.40;;;15.20;99.90;;;;;;7577538;19;20058;-75
2023/05/28 06:55:55;;;;;;;13.80;7.15;;;15.40;99.90;;;;;;7590692;19;20053;-76
2023/05/28 06:58:37;;;;;;;12.15;6.35;;;15.50;99.70;;;;;;7592525;19;20026;-75
2023/05/28 07:01:09;;;;;;;14.73;6.13;;;15.70;99.80;;;;;;7593416;19;20360;-75
2023/05/28 07:04:04;;;;;;;15.82;6.85;;;15.80;98.50;;;;;;7593301;19;20014;-76
2023/05/28 07:06:41;;;;;;;24.75;7.70;;;15.80;97.30;;;;;;7596603;19;20033;-75
2023/05/28 07:09:19;;;;;;;20.48;6.65;;;15.90;97.30;;;;;;7590826;19;20010;-76
2023/05/28 07:11:51;;;;;;;14.55;5.95;;;16.00;96.40;;;;;;7591762;19;20018;-74
2023/05/28 07:14:24;;;;;;;19.42;6.68;;;16.10;96.20;;;;;;7595300;19;20025;-74
2023/05/28 07:16:57;;;;;;;16.33;6.75;;;16.20;95.60;;;;;;7588209;19;20022;-75
2023/05/28 07:19:30;;;;;;;15.10;6.63;;;16.30;94.60;;;;;;7590555;19;20014;-72
2023/05/28 07:22:04;;;;;;;21.30;7.50;;;16.50;94.30;;;;;;7593169;19;20993;-76
2023/05/28 07:24:36;;;;;;;14.90;6.28;;;16.50;94.30;;;;;;7592809;19;20014;-74
2023/05/28 07:27:09;;;;;;;19.17;6.32;;;16.60;93.40;;;;;;7593250;19;21879;-76
2023/05/28 07:29:41;;;;;;;19.73;6.70;;;16.50;93.80;;;;;;7586541;19;20026;-74
2023/05/28 07:32:17;;;;;;;17.58;6.20;;;16.60;94.00;;;;;;7596980;19;20639;-74
2023/05/28 07:34:51;;;;;;;12.75;7.03;;;16.80;93.70;;;;;;7590531;19;20018;-73
2023/05/28 07:37:25;;;;;;;16.00;7.03;;;17.00;92.50;;;;;;7583528;19;21175;-76
2023/05/28 07:39:57;;;;;;;17.13;7.32;;;17.20;92.10;;;;;;7590222;19;20021;-75
2023/05/28 07:42:30;;;;;;;16.93;7.77;;;17.40;92.00;;;;;;7595164;19;20018;-74
2023/05/28 07:45:07;;;;;;;20.70;8.38;;;17.50;91.50;;;;;;7593260;19;20011;-75
2023/05/28 07:47:40;;;;;;;18.42;9.80;;;17.50;90.50;;;;;;7591632;19;20018;-74
2023/05/28 07:50:33;;;;;;;23.38;8.50;;;17.70;90.70;;;;;;7583561;19;21749;-76
2023/05/28 07:53:18;;;;;;;18.48;7.95;;;17.80;88.20;;;;;;7586029;19;20027;-75
2023/05/28 07:55:53;;;;;;;17.02;7.43;;;17.90;86.20;;;;;;7596060;19;20014;-75
2023/05/28 07:58:27;;;;;;;14.18;6.15;;;18.10;85.40;;;;;;7596146;19;21352;-75
2023/05/28 08:01:00;;;;;;;16.30;5.90;;;18.10;85.50;;;;;;7596968;19;20018;-76
2023/05/28 08:03:33;;;;;;;12.57;5.82;;;18.20;86.60;;;;;;7596407;19;21009;-76
2023/05/28 08:06:08;;;;;;;13.10;5.65;;;18.40;84.90;;;;;;7598472;19;20056;-75
2023/05/28 08:08:42;;;;;;;16.30;5.32;;;18.60;82.90;;;;;;7593254;19;20014;-77
2023/05/28 08:11:15;;;;;;;12.30;5.63;;;18.70;81.80;;;;;;7597356;19;20019;-76
2023/05/28 08:13:47;;;;;;;13.50;5.82;;;18.80;81.20;;;;;;7599601;19;20089;-77
2023/05/28 08:16:21;;;;;;;10.90;5.50;;;18.90;80.20;;;;;;7597472;19;20143;-76
2023/05/28 08:19:12;;;;;;;17.77;5.65;;;19.00;80.20;;;;;;7599236;19;20021;-76
2023/05/28 08:21:45;;;;;;;11.68;5.07;;;19.10;77.90;;;;;;7594533;19;21094;-75
2023/05/28 08:24:20;;;;;;;18.95;5.95;;;19.10;74.90;;;;;;7592709;19;20018;-76
2023/05/28 08:26:56;;;;;;;12.55;5.60;;;19.20;75.70;;;;;;7592228;19;20346;-76
2023/05/28 08:29:30;;;;;;;11.68;5.15;;;19.20;74.40;;;;;;7593693;19;20019;-76
2023/05/28 08:32:07;;;;;;;12.75;5.35;;;19.30;74.00;;;;;;7589881;19;20018;-77
2023/05/28 08:34:44;;;;;;;10.57;4.90;;;19.40;72.30;;;;;;7595649;19;20029;-75
2023/05/28 08:37:16;;;;;;;17.42;6.38;;;19.40;69.80;;;;;;7594284;19;20086;-76
2023/05/28 08:40:13;;;;;;;14.60;5.68;;;19.50;72.00;;;;;;7606539;19;20769;-75
2023/05/28 08:42:46;;;;;;;15.82;5.18;;;19.70;70.60;;;;;;7612085;19;20024;-76
2023/05/28 08:45:18;;;;;;;9.57;5.50;;;19.70;72.40;;;;;;7607154;19;20019;-74
2023/05/28 08:47:53;;;;;;;8.18;4.43;;;19.80;72.20;;;;;;7594112;19;20057;-77
2023/05/28 08:50:30;;;;;;;13.93;5.35;;;19.90;71.60;;;;;;7586542;19;20053;-76
2023/05/28 08:53:15;;;;;;;10.85;5.00;;;20.00;72.50;;;;;;7592999;19;20602;-77
2023/05/28 08:55:50;;;;;;;12.40;5.13;;;20.10;69.00;;;;;;7600419;19;20019;-75
2023/05/28 08:58:25;;;;;;;11.40;4.63;;;20.00;68.10;;;;;;7591456;19;20038;-74
2023/05/28 09:00:58;;;;;;;8.88;4.40;;;19.90;62.60;;;;;;7584555;19;20720;-75
2023/05/28 09:03:40;;;;;;;10.07;4.93;;;19.90;62.20;;;;;;7582916;19;20014;-75
2023/05/28 09:06:32;;;;;;;12.02;5.50;;;19.80;64.60;;;;;;7595801;19;20047;-76
2023/05/28 09:09:09;;;;;;;14.55;5.40;;;19.90;60.80;;;;;;7598362;19;20018;-77
2023/05/28 09:11:47;;;;;;;8.63;5.32;;;19.90;62.90;;;;;;7594230;19;20019;-75
2023/05/28 09:14:20;;;;;;;;;;;20.00;62.80;;;;;;7586928;19;20014;-74
2023/05/28 09:16:54;;;;;;;;;;;20.10;64.10;;;;;;7595991;19;20341;-75
2023/05/28 09:19:29;;;;;;;13.68;5.10;;;20.00;63.40;;;;;;7601230;19;19919;-76
2023/05/28 09:22:04;;;;;;;8.73;4.70;;;20.00;64.40;;;;;;7601011;19;20053;-75
2023/05/28 09:25:00;;;;;;;9.73;5.30;;;20.00;65.60;;;;;;7604325;19;20011;-75
2023/05/28 09:27:44;;;;;;;11.13;4.87;;;20.20;66.50;;;;;;7609101;19;20070;-76
2023/05/28 09:30:17;;;;;;;13.55;5.13;;;20.30;66.40;;;;;;7605622;19;20023;-78
2023/05/28 09:33:00;;;;;;;13.98;5.28;;;20.30;65.30;;;;;;7601449;19;21252;-75
2023/05/28 09:35:33;;;;;;;12.20;5.20;;;20.40;66.80;;;;;;7608617;19;20025;-75
2023/05/28 09:38:08;;;;;;;9.98;4.75;;;20.50;65.60;;;;;;7596781;19;20021;-77
2023/05/28 09:40:43;;;;;;;12.50;4.90;;;20.50;64.30;;;;;;7594963;19;20038;-74
2023/05/28 09:43:16;;;;;;;8.68;4.88;;;20.50;62.40;;;;;;7596533;19;20620;-74
2023/05/28 09:45:50;;;;;;;11.45;4.40;;;20.50;65.00;;;;;;7597051;19;20109;-76
2023/05/28 09:48:23;;;;;;;11.00;4.47;;;20.60;63.60;;;;;;7598713;19;20017;-75
2023/05/28 09:50:56;;;;;;;10.48;5.07;;;20.50;60.40;;;;;;7597114;19;20021;-76
2023/05/28 09:53:33;;;;;;;9.40;4.68;;;20.50;62.40;;;;;;7596618;19;20013;-76
2023/05/28 09:56:08;;;;;;;10.10;4.72;;;20.50;61.90;;;;;;7599578;19;20018;-75
2023/05/28 09:58:46;;;;;;;12.82;5.25;;;20.60;62.50;;;;;;7595343;19;20011;-75
2023/05/28 10:01:23;;;;;;;13.52;4.82;;;20.60;61.00;;;;;;7597181;19;20038;-77
2023/05/28 10:04:02;;;;;;;12.15;4.78;;;20.70;62.40;;;;;;7591610;19;20018;-74
2023/05/28 10:06:40;;;;;;;13.25;4.93;;;20.80;62.00;;;;;;7591931;19;24098;-75
2023/05/28 10:09:15;;;;;;;12.68;4.75;;;20.90;61.10;;;;;;7594171;19;20089;-75
2023/05/28 10:12:16;;;;;;;13.77;5.07;;;20.80;60.80;;;;;;7592341;19;20006;-75
2023/05/28 10:14:50;;;;;;;12.48;5.10;;;20.80;61.80;;;;;;7602909;19;20715;-78
2023/05/28 10:17:23;;;;;;;12.32;4.97;;;;;;;;;;7601417;19;20026;-74
2023/05/28 10:19:55;;;;;;;11.95;5.38;;;20.90;60.80;;;;;;7609210;19;20014;-75
2023/05/28 10:22:29;;;;;;;11.38;4.70;;;;;;;;;;7600735;19;20022;-77
2023/05/28 10:25:07;;;;;;;12.40;4.65;;;21.60;60.20;;;;;;7603349;19;20098;-76
2023/05/28 10:27:48;;;;;;;9.93;4.88;;;22.80;60.40;;;;;;7599278;19;20018;-75
2023/05/28 10:30:34;;;;;;;15.13;4.90;;;22.90;56.50;;;;;;7593947;19;20597;-76
2023/05/28 10:33:15;;;;;;;13.43;5.38;;;23.20;55.50;;;;;;7589695;19;20007;-74
2023/05/28 10:35:56;;;;;;;12.00;5.43;;;23.30;55.60;;;;;;7600325;19;20425;-74
2023/05/28 10:38:30;;;;;;;16.20;5.32;;;23.60;55.60;;;;;;7595682;19;20452;-75
2023/05/28 10:41:03;;;;;;;8.85;4.68;;;23.80;54.10;;;;;;7595410;19;20018;-76
2023/05/28 10:43:38;;;;;;;12.30;4.75;;;23.80;54.10;;;;;;7595415;19;20011;-75
2023/05/28 10:46:18;;;;;;;11.35;5.55;;;24.00;54.80;;;;;;7577208;19;20057;-75
2023/05/28 10:49:23;;;;;;;14.90;6.05;;;24.30;54.80;;;;;;7593553;19;20372;-76
2023/05/28 10:51:59;;;;;;;13.20;5.55;;;24.40;54.60;;;;;;7590478;19;20020;-75
2023/05/28 10:54:38;;;;;;;19.60;8.65;;;24.50;53.60;;;;;;7589787;19;20030;-77
2023/05/28 10:57:17;;;;;;;9.93;4.97;;;24.50;52.00;;;;;;7596578;19;20472;-76
2023/05/28 10:59:51;;;;;;;11.70;5.53;;;24.40;51.80;;;;;;7595052;19;20007;-76
2023/05/28 11:02:28;;;;;;;21.63;11.50;;;24.60;53.40;;;;;;7589221;19;20022;-75
2023/05/28 11:05:03;;;;;;;13.57;5.30;;;24.60;52.80;;;;;;7590861;19;20022;-77
2023/05/28 11:07:41;;;;;;;9.52;5.20;;;24.70;54.00;;;;;;7592578;19;20334;-77
2023/05/28 11:10:16;;;;;;;12.13;5.03;;;25.00;51.90;;;;;;7586881;19;20014;-75
2023/05/28 11:12:50;;;;;;;9.57;5.20;;;24.90;50.00;;;;;;7587907;19;20098;-76
2023/05/28 11:15:22;;;;;;;8.95;4.50;;;25.00;52.30;;;;;;7594778;19;20023;-75
2023/05/28 11:17:55;;;;;;;11.23;5.37;;;24.90;50.10;;;;;;7595886;19;20469;-77
2023/05/28 11:20:27;;;;;;;14.02;5.22;;;25.00;51.20;;;;;;7599705;19;20018;-74
2023/05/28 11:23:16;;;;;;;11.90;5.43;;;25.20;49.50;;;;;;7594532;19;20122;-75
2023/05/28 11:25:51;;;;;;;10.68;5.03;;;25.10;48.20;;;;;;7597032;19;20041;-76
2023/05/28 11:28:27;;;;;;;13.25;4.55;;;25.00;50.10;;;;;;7593905;19;20086;-76
2023/05/28 11:30:59;;;;;;;10.52;4.65;;;25.20;49.80;;;;;;7589303;19;21221;-75
2023/05/28 11:33:31;;;;;;;11.65;5.20;;;25.30;50.30;;;;;;7586970;19;20019;-76
2023/05/28 11:36:04;;;;;;;16.35;5.78;;;25.40;49.50;;;;;;7590319;19;20014;-74
2023/05/28 11:38:36;;;;;;;9.02;4.90;;;25.50;49.60;;;;;;7589757;19;20018;-76
2023/05/28 11:41:09;;;;;;;8.32;4.40;;;25.60;47.60;;;;;;7591755;19;21724;-75
2023/05/28 11:43:41;;;;;;;13.57;4.88;;;25.40;48.10;;;;;;7596285;19;20126;-75
2023/05/28 11:46:13;;;;;;;11.48;5.38;;;25.40;47.60;;;;;;7595772;19;20014;-76
2023/05/28 11:48:46;;;;;;;11.43;4.80;;;25.60;48.20;;;;;;7592371;19;20018;-75
2023/05/28 11:51:20;;;;;;;12.15;5.32;;;25.70;47.80;;;;;;7603257;19;20015;-75
2023/05/28 11:53:52;;;;;;;11.45;5.00;;;25.80;47.90;;;;;;7592230;19;20018;-75
2023/05/28 11:56:27;;;;;;;14.73;5.33;;;25.90;47.90;;;;;;7601699;19;20381;-72
2023/05/28 11:58:59;;;;;;;10.30;4.80;;;25.90;49.00;;;;;;7594069;19;20021;-73
2023/05/28 12:01:33;;;;;;;8.35;4.13;;;25.80;46.30;;;;;;7595227;19;20461;-74
2023/05/28 12:04:06;;;;;;;8.00;4.47;;;26.00;48.40;;;;;;7594310;19;20609;-74
2023/05/28 12:06:55;;;;;;;;;;;26.20;47.40;;;;;;7595787;19;20014;-76
2023/05/28 12:09:27;;;;;;;10.95;5.20;;;26.50;47.10;;;;;;7596531;19;20712;-75
2023/05/28 12:12:12;;;;;;;16.30;4.95;;;26.50;45.50;;;;;;7593731;19;20061;-75
2023/05/28 12:14:46;;;;;;;10.20;4.03;;;26.50;44.10;;;;;;7595717;19;20530;-76
2023/05/28 12:17:19;;;;;;;12.50;4.75;;;26.40;45.80;;;;;;7595292;19;20082;-75
2023/05/28 12:19:51;;;;;;;8.77;4.93;;;26.50;47.00;;;;;;7603703;19;20047;-75
2023/05/28 12:22:24;;;;;;;9.20;4.68;;;26.30;44.70;;;;;;7595193;19;20021;-76
2023/05/28 12:24:56;;;;;;;15.90;5.33;;;26.30;46.00;;;;;;7599736;19;20038;-76
2023/05/28 12:27:28;;;;;;;8.95;4.82;;;26.40;46.30;;;;;;7605670;19;21070;-76
2023/05/28 12:30:00;;;;;;;12.40;5.00;;;26.50;47.50;;;;;;7595493;19;20345;-75
2023/05/28 12:32:36;;;;;;;14.38;5.10;;;26.80;46.70;;;;;;7594658;19;20056;-78
2023/05/28 12:35:08;;;;;;;13.23;4.90;;;26.70;47.70;;;;;;7592848;19;20631;-76
2023/05/28 12:37:41;;;;;;;12.48;5.30;;;26.90;46.60;;;;;;7599863;19;20022;-75
2023/05/28 12:40:13;;;;;;;12.98;4.90;;;26.90;46.00;;;;;;7598420;19;20102;-75
2023/05/28 12:42:45;;;;;;;11.38;4.93;;;26.60;45.70;;;;;;7600329;19;21261;-75
2023/05/28 12:45:18;;;;;;;11.27;4.82;;;26.80;44.40;;;;;;7589265;19;20019;-76
2023/05/28 12:47:50;;;;;;;10.40;4.75;;;26.70;44.80;;;;;;7599734;19;20784;-75
2023/05/28 12:50:23;;;;;;;10.60;5.05;;;26.60;44.00;;;;;;7599892;19;20049;-75
2023/05/28 12:52:55;;;;;;;8.85;4.43;;;26.90;44.80;;;;;;7592116;19;20014;-74
2023/05/28 12:55:27;;;;;;;9.85;4.82;;;26.90;45.00;;;;;;7597617;19;20026;-75
2023/05/28 12:58:00;;;;;;;9.63;4.65;;;27.30;45.70;;;;;;7595056;19;20029;-76
2023/05/28 13:00:33;;;;;;;10.32;4.60;;;27.40;43.40;;;;;;7592811;19;21500;-76
2023/05/28 13:03:07;;;;;;;11.05;5.38;;;27.20;43.00;;;;;;7592627;19;20041;-76
2023/05/28 13:05:40;;;;;;;9.38;4.68;;;27.20;43.10;;;;;;7595626;19;20014;-75
2023/05/28 13:08:12;;;;;;;11.18;5.15;;;27.30;42.50;;;;;;7593431;19;20014;-75
2023/05/28 13:10:44;;;;;;;11.18;4.90;;;27.10;42.20;;;;;;7591833;19;20920;-75
2023/05/28 13:13:16;;;;;;;7.75;3.85;;;27.10;43.90;;;;;;7595415;19;20043;-76
2023/05/28 13:15:49;;;;;;;8.25;4.50;;;27.50;42.10;;;;;;7598767;19;20010;-74
2023/05/28 13:18:22;;;;;;;8.63;4.68;;;27.50;42.30;;;;;;7602147;19;20052;-75
2023/05/28 13:20:54;;;;;;;9.15;4.75;;;27.10;41.70;;;;;;7601108;19;20082;-75
2023/05/28 13:23:26;;;;;;;7.32;3.88;;;27.10;42.80;;;;;;7595947;19;20025;-75